Forside
METAR-TAF:

METAR-TAF

Lufthavne :

Hans Christian Andersen Airport

Odense, Danmark

Breddekreds: 55-29N, længdekreds: 010-20E, højde: 17 m

Aktuelle vejr

Denne rapport blev lavet for 14 minutter siden, kl. 08:50 UTC
Vind 6 kt fra østsydøst
Temperatur 6°C
Fugtighed 93%
Tryk 1005 hPa
Sigt: 1200 m
dis,

METAR: EKOD 020850Z 12006KT 1200 BR VV004 06/05 Q1005 CLOUD HIGHTS ESTEMATED

Tid: 10:04 (09:04 UTC)

Vejrudsigter

Denne rapport blev lavet for 58 minutter siden, kl. 08:06 UTC
Foreløbig gælder fra 02 på 08 UTC til 02 på 14 UTC
Vind 7 kt fra østsydøst
Sigt: 0500 m
i en højde af 200 ft
tåge
ændring
fra 02 på 08 UTC til 02 på 10 UTC
Sigt 10 km eller mere
Nogle få skyer i en højde af 300 ft
Sandsynlighed 40%
fra 02 på 10 UTC til 02 på 11 UTC
Sigt: 4000 m
Brudte skyer i en højde af 400 ft
dis, let regn, finregn,

TAF: EKOD 020806Z 0208/0214 12007KT 0500 FG VV002 BECMG 0208/0210 9999 NSW FEW003 PROB40 0210/0211 4000 BR -RADZ BKN004

Vejrobservationer og prognoser fra mere end 4000 lufthavne (METAR og TAF).

De gule og røde prikker repræsenterer de meteorologiske stationer.

Flyt musen over at se navnet på stationen.

Så klik over at se vejr observationer og prognoser.

At skifte det kort: Klik på de grønne knapper med et sort kors for at zoome ind; på den grønne knap med en bindestreg for at zoome ud; eller på de grønne pile for tilstødende kort.


METAR-TAF: